<?xml version="1.0" encoding="UTF-8" standalone="no" ?>
<gpx xmlns="http://www.topografix.com/GPX/1/1" xmlns:xsi="http://www.w3.org/2001/XMLSchema-instance" xsi:schemaLocation="http://www.topografix.com/GPX/1/1 http://www.topografix.com/GPX/1/1/gpx.xsd" version="1.1" creator="VisuGPX - https://www.visugpx.com">
  <metadata>
    <name>Sentier bleu n°16</name>
    <desc><![CDATA[Sentier bleu n°16]]></desc>
  </metadata>
  <trk>
    <name><![CDATA[Sentier bleu 16 06-12-2009]]></name>
    <trkseg>
      <trkpt lat="48.3903" lon="2.55295">
        <ele>75</ele>
        <time>2009-12-06T10:10:19Z</time>
      </trkpt>
      <trkpt lat="48.39044" lon="2.553">
        <ele>75</ele>
        <time>2009-12-06T10:10:59Z</time>
      </trkpt>
      <trkpt lat="48.39044" lon="2.55298">
        <ele>75</ele>
        <time>2009-12-06T10:11:01Z</time>
      </trkpt>
      <trkpt lat="48.39047" lon="2.55273">
        <ele>75</ele>
        <time>2009-12-06T10:11:19Z</time>
      </trkpt>
      <trkpt lat="48.39056" lon="2.55253">
        <ele>75</ele>
        <time>2009-12-06T10:11:36Z</time>
      </trkpt>
      <trkpt lat="48.39068" lon="2.55241">
        <ele>75</ele>
        <time>2009-12-06T10:11:48Z</time>
      </trkpt>
      <trkpt lat="48.3908" lon="2.55229">
        <ele>76</ele>
        <time>2009-12-06T10:12:00Z</time>
      </trkpt>
      <trkpt lat="48.39093" lon="2.55229">
        <ele>76</ele>
        <time>2009-12-06T10:12:09Z</time>
      </trkpt>
      <trkpt lat="48.39107" lon="2.55237">
        <ele>77</ele>
        <time>2009-12-06T10:12:18Z</time>
      </trkpt>
      <trkpt lat="48.3912" lon="2.55237">
        <ele>77</ele>
        <time>2009-12-06T10:12:30Z</time>
      </trkpt>
      <trkpt lat="48.39134" lon="2.55243">
        <ele>78</ele>
        <time>2009-12-06T10:12:41Z</time>
      </trkpt>
      <trkpt lat="48.39147" lon="2.5524">
        <ele>78</ele>
        <time>2009-12-06T10:12:59Z</time>
      </trkpt>
      <trkpt lat="48.39156" lon="2.55223">
        <ele>79</ele>
        <time>2009-12-06T10:13:12Z</time>
      </trkpt>
      <trkpt lat="48.39167" lon="2.55208">
        <ele>79</ele>
        <time>2009-12-06T10:13:30Z</time>
      </trkpt>
      <trkpt lat="48.39173" lon="2.55187">
        <ele>79</ele>
        <time>2009-12-06T10:13:47Z</time>
      </trkpt>
      <trkpt lat="48.39186" lon="2.55196">
        <ele>77</ele>
        <time>2009-12-06T10:14:09Z</time>
      </trkpt>
      <trkpt lat="48.392" lon="2.55193">
        <ele>76</ele>
        <time>2009-12-06T10:14:20Z</time>
      </trkpt>
      <trkpt lat="48.3921" lon="2.55178">
        <ele>76</ele>
        <time>2009-12-06T10:14:33Z</time>
      </trkpt>
      <trkpt lat="48.3921" lon="2.55156">
        <ele>77</ele>
        <time>2009-12-06T10:14:50Z</time>
      </trkpt>
      <trkpt lat="48.3921" lon="2.55135">
        <ele>78</ele>
        <time>2009-12-06T10:15:11Z</time>
      </trkpt>
      <trkpt lat="48.39216" lon="2.55115">
        <ele>78</ele>
        <time>2009-12-06T10:15:33Z</time>
      </trkpt>
      <trkpt lat="48.39233" lon="2.55115">
        <ele>76</ele>
        <time>2009-12-06T10:15:50Z</time>
      </trkpt>
      <trkpt lat="48.39239" lon="2.55135">
        <ele>74</ele>
        <time>2009-12-06T10:16:02Z</time>
      </trkpt>
      <trkpt lat="48.39252" lon="2.55156">
        <ele>74</ele>
        <time>2009-12-06T10:16:19Z</time>
      </trkpt>
      <trkpt lat="48.39264" lon="2.55169">
        <ele>73</ele>
        <time>2009-12-06T10:16:31Z</time>
      </trkpt>
      <trkpt lat="48.39276" lon="2.55183">
        <ele>73</ele>
        <time>2009-12-06T10:16:42Z</time>
      </trkpt>
      <trkpt lat="48.39287" lon="2.55201">
        <ele>73</ele>
        <time>2009-12-06T10:16:53Z</time>
      </trkpt>
      <trkpt lat="48.39297" lon="2.55214">
        <ele>73</ele>
        <time>2009-12-06T10:17:03Z</time>
      </trkpt>
      <trkpt lat="48.39311" lon="2.55225">
        <ele>72</ele>
        <time>2009-12-06T10:17:13Z</time>
      </trkpt>
      <trkpt lat="48.39323" lon="2.55235">
        <ele>72</ele>
        <time>2009-12-06T10:17:25Z</time>
      </trkpt>
      <trkpt lat="48.39336" lon="2.55237">
        <ele>72</ele>
        <time>2009-12-06T10:17:36Z</time>
      </trkpt>
      <trkpt lat="48.3935" lon="2.55234">
        <ele>72</ele>
        <time>2009-12-06T10:17:46Z</time>
      </trkpt>
      <trkpt lat="48.39363" lon="2.55234">
        <ele>73</ele>
        <time>2009-12-06T10:17:56Z</time>
      </trkpt>
      <trkpt lat="48.39381" lon="2.55226">
        <ele>73</ele>
        <time>2009-12-06T10:18:13Z</time>
      </trkpt>
      <trkpt lat="48.39393" lon="2.55216">
        <ele>73</ele>
        <time>2009-12-06T10:18:23Z</time>
      </trkpt>
      <trkpt lat="48.39407" lon="2.5521">
        <ele>73</ele>
        <time>2009-12-06T10:18:33Z</time>
      </trkpt>
      <trkpt lat="48.39419" lon="2.55199">
        <ele>74</ele>
        <time>2009-12-06T10:18:45Z</time>
      </trkpt>
      <trkpt lat="48.39428" lon="2.55183">
        <ele>74</ele>
        <time>2009-12-06T10:18:56Z</time>
      </trkpt>
      <trkpt lat="48.39438" lon="2.55169">
        <ele>74</ele>
        <time>2009-12-06T10:19:07Z</time>
      </trkpt>
      <trkpt lat="48.39443" lon="2.55148">
        <ele>74</ele>
        <time>2009-12-06T10:19:17Z</time>
      </trkpt>
      <trkpt lat="48.39441" lon="2.55127">
        <ele>75</ele>
        <time>2009-12-06T10:19:34Z</time>
      </trkpt>
      <trkpt lat="48.39447" lon="2.55108">
        <ele>75</ele>
        <time>2009-12-06T10:19:46Z</time>
      </trkpt>
      <trkpt lat="48.39455" lon="2.5509">
        <ele>75</ele>
        <time>2009-12-06T10:19:57Z</time>
      </trkpt>
      <trkpt lat="48.39455" lon="2.55067">
        <ele>76</ele>
        <time>2009-12-06T10:20:14Z</time>
      </trkpt>
      <trkpt lat="48.39453" lon="2.55043">
        <ele>77</ele>
        <time>2009-12-06T10:20:31Z</time>
      </trkpt>
      <trkpt lat="48.39456" lon="2.55022">
        <ele>78</ele>
        <time>2009-12-06T10:20:43Z</time>
      </trkpt>
      <trkpt lat="48.39458" lon="2.55001">
        <ele>78</ele>
        <time>2009-12-06T10:20:54Z</time>
      </trkpt>
      <trkpt lat="48.39462" lon="2.54982">
        <ele>78</ele>
        <time>2009-12-06T10:21:05Z</time>
      </trkpt>
      <trkpt lat="48.39459" lon="2.54958">
        <ele>78</ele>
        <time>2009-12-06T10:21:22Z</time>
      </trkpt>
      <trkpt lat="48.39447" lon="2.54941">
        <ele>81</ele>
        <time>2009-12-06T10:21:39Z</time>
      </trkpt>
      <trkpt lat="48.3945" lon="2.5492">
        <ele>82</ele>
        <time>2009-12-06T10:21:56Z</time>
      </trkpt>
      <trkpt lat="48.3945" lon="2.54899">
        <ele>83</ele>
        <time>2009-12-06T10:22:13Z</time>
      </trkpt>
      <trkpt lat="48.39455" lon="2.54878">
        <ele>84</ele>
        <time>2009-12-06T10:22:32Z</time>
      </trkpt>
      <trkpt lat="48.39455" lon="2.54857">
        <ele>89</ele>
        <time>2009-12-06T10:22:52Z</time>
      </trkpt>
      <trkpt lat="48.39446" lon="2.54841">
        <ele>94</ele>
        <time>2009-12-06T10:23:10Z</time>
      </trkpt>
      <trkpt lat="48.39449" lon="2.5482">
        <ele>99</ele>
        <time>2009-12-06T10:23:41Z</time>
      </trkpt>
      <trkpt lat="48.39456" lon="2.548">
        <ele>102</ele>
        <time>2009-12-06T10:24:03Z</time>
      </trkpt>
      <trkpt lat="48.39462" lon="2.54779">
        <ele>105</ele>
        <time>2009-12-06T10:24:20Z</time>
      </trkpt>
      <trkpt lat="48.39449" lon="2.54778">
        <ele>107</ele>
        <time>2009-12-06T10:24:53Z</time>
      </trkpt>
      <trkpt lat="48.3944" lon="2.54794">
        <ele>105</ele>
        <time>2009-12-06T10:25:06Z</time>
      </trkpt>
      <trkpt lat="48.39426" lon="2.54799">
        <ele>105</ele>
        <time>2009-12-06T10:25:18Z</time>
      </trkpt>
      <trkpt lat="48.39426" lon="2.54778">
        <ele>110</ele>
        <time>2009-12-06T10:25:52Z</time>
      </trkpt>
      <trkpt lat="48.39425" lon="2.54757">
        <ele>114</ele>
        <time>2009-12-06T10:26:09Z</time>
      </trkpt>
      <trkpt lat="48.39434" lon="2.5474">
        <ele>115</ele>
        <time>2009-12-06T10:26:26Z</time>
      </trkpt>
      <trkpt lat="48.39443" lon="2.54724">
        <ele>113</ele>
        <time>2009-12-06T10:26:39Z</time>
      </trkpt>
      <trkpt lat="48.39447" lon="2.54704">
        <ele>113</ele>
        <time>2009-12-06T10:26:52Z</time>
      </trkpt>
      <trkpt lat="48.39452" lon="2.54685">
        <ele>112</ele>
        <time>2009-12-06T10:27:05Z</time>
      </trkpt>
      <trkpt lat="48.39456" lon="2.54664">
        <ele>112</ele>
        <time>2009-12-06T10:27:18Z</time>
      </trkpt>
      <trkpt lat="48.39461" lon="2.54644">
        <ele>113</ele>
        <time>2009-12-06T10:27:30Z</time>
      </trkpt>
      <trkpt lat="48.39468" lon="2.54625">
        <ele>112</ele>
        <time>2009-12-06T10:27:47Z</time>
      </trkpt>
      <trkpt lat="48.39482" lon="2.54631">
        <ele>106</ele>
        <time>2009-12-06T10:28:13Z</time>
      </trkpt>
      <trkpt lat="48.39495" lon="2.54623">
        <ele>102</ele>
        <time>2009-12-06T10:28:30Z</time>
      </trkpt>
      <trkpt lat="48.39504" lon="2.54607">
        <ele>100</ele>
        <time>2009-12-06T10:28:42Z</time>
      </trkpt>
      <trkpt lat="48.39516" lon="2.54586">
        <ele>100</ele>
        <time>2009-12-06T10:28:59Z</time>
      </trkpt>
      <trkpt lat="48.39527" lon="2.54572">
        <ele>99</ele>
        <time>2009-12-06T10:29:12Z</time>
      </trkpt>
      <trkpt lat="48.39537" lon="2.54559">
        <ele>98</ele>
        <time>2009-12-06T10:29:38Z</time>
      </trkpt>
      <trkpt lat="48.39549" lon="2.54569">
        <ele>92</ele>
        <time>2009-12-06T10:29:58Z</time>
      </trkpt>
      <trkpt lat="48.39549" lon="2.5459">
        <ele>90</ele>
        <time>2009-12-06T10:30:17Z</time>
      </trkpt>
      <trkpt lat="48.39563" lon="2.54596">
        <ele>86</ele>
        <time>2009-12-06T10:30:40Z</time>
      </trkpt>
      <trkpt lat="48.39573" lon="2.54583">
        <ele>86</ele>
        <time>2009-12-06T10:30:53Z</time>
      </trkpt>
      <trkpt lat="48.39587" lon="2.54572">
        <ele>84</ele>
        <time>2009-12-06T10:31:15Z</time>
      </trkpt>
      <trkpt lat="48.39584" lon="2.54551">
        <ele>86</ele>
        <time>2009-12-06T10:31:36Z</time>
      </trkpt>
      <trkpt lat="48.39573" lon="2.54532">
        <ele>89</ele>
        <time>2009-12-06T10:31:53Z</time>
      </trkpt>
      <trkpt lat="48.39569" lon="2.54511">
        <ele>91</ele>
        <time>2009-12-06T10:32:10Z</time>
      </trkpt>
      <trkpt lat="48.3957" lon="2.5449">
        <ele>91</ele>
        <time>2009-12-06T10:32:35Z</time>
      </trkpt>
      <trkpt lat="48.39569" lon="2.54469">
        <ele>91</ele>
        <time>2009-12-06T10:32:54Z</time>
      </trkpt>
      <trkpt lat="48.39558" lon="2.54455">
        <ele>94</ele>
        <time>2009-12-06T10:33:20Z</time>
      </trkpt>
      <trkpt lat="48.39558" lon="2.54434">
        <ele>95</ele>
        <time>2009-12-06T10:33:38Z</time>
      </trkpt>
      <trkpt lat="48.39563" lon="2.54415">
        <ele>94</ele>
        <time>2009-12-06T10:33:56Z</time>
      </trkpt>
      <trkpt lat="48.39575" lon="2.54401">
        <ele>92</ele>
        <time>2009-12-06T10:34:08Z</time>
      </trkpt>
      <trkpt lat="48.39585" lon="2.54385">
        <ele>90</ele>
        <time>2009-12-06T10:34:19Z</time>
      </trkpt>
      <trkpt lat="48.39596" lon="2.54371">
        <ele>87</ele>
        <time>2009-12-06T10:34:31Z</time>
      </trkpt>
      <trkpt lat="48.39599" lon="2.5435">
        <ele>86</ele>
        <time>2009-12-06T10:34:53Z</time>
      </trkpt>
      <trkpt lat="48.39606" lon="2.54328">
        <ele>86</ele>
        <time>2009-12-06T10:35:10Z</time>
      </trkpt>
      <trkpt lat="48.39593" lon="2.54319">
        <ele>91</ele>
        <time>2009-12-06T10:35:32Z</time>
      </trkpt>
      <trkpt lat="48.39579" lon="2.54313">
        <ele>96</ele>
        <time>2009-12-06T10:35:57Z</time>
      </trkpt>
      <trkpt lat="48.39564" lon="2.54314">
        <ele>102</ele>
        <time>2009-12-06T10:36:14Z</time>
      </trkpt>
      <trkpt lat="48.39552" lon="2.54325">
        <ele>103</ele>
        <time>2009-12-06T10:36:37Z</time>
      </trkpt>
      <trkpt lat="48.39548" lon="2.54344">
        <ele>101</ele>
        <time>2009-12-06T10:36:56Z</time>
      </trkpt>
      <trkpt lat="48.39537" lon="2.54358">
        <ele>102</ele>
        <time>2009-12-06T10:37:24Z</time>
      </trkpt>
      <trkpt lat="48.39524" lon="2.54355">
        <ele>105</ele>
        <time>2009-12-06T10:37:57Z</time>
      </trkpt>
      <trkpt lat="48.39518" lon="2.54335">
        <ele>109</ele>
        <time>2009-12-06T10:38:19Z</time>
      </trkpt>
      <trkpt lat="48.39525" lon="2.54317">
        <ele>110</ele>
        <time>2009-12-06T10:38:32Z</time>
      </trkpt>
      <trkpt lat="48.39527" lon="2.54296">
        <ele>114</ele>
        <time>2009-12-06T10:38:45Z</time>
      </trkpt>
      <trkpt lat="48.39531" lon="2.54277">
        <ele>116</ele>
        <time>2009-12-06T10:38:57Z</time>
      </trkpt>
      <trkpt lat="48.39537" lon="2.5425">
        <ele>117</ele>
        <time>2009-12-06T10:39:15Z</time>
      </trkpt>
      <trkpt lat="48.39543" lon="2.5423">
        <ele>118</ele>
        <time>2009-12-06T10:39:28Z</time>
      </trkpt>
      <trkpt lat="48.39549" lon="2.54208">
        <ele>118</ele>
        <time>2009-12-06T10:39:41Z</time>
      </trkpt>
      <trkpt lat="48.39557" lon="2.5419">
        <ele>117</ele>
        <time>2009-12-06T10:39:51Z</time>
      </trkpt>
      <trkpt lat="48.39567" lon="2.54176">
        <ele>113</ele>
        <time>2009-12-06T10:40:02Z</time>
      </trkpt>
      <trkpt lat="48.39579" lon="2.54164">
        <ele>108</ele>
        <time>2009-12-06T10:40:14Z</time>
      </trkpt>
      <trkpt lat="48.39587" lon="2.54145">
        <ele>106</ele>
        <time>2009-12-06T10:40:31Z</time>
      </trkpt>
      <trkpt lat="48.3959" lon="2.54124">
        <ele>106</ele>
        <time>2009-12-06T10:40:51Z</time>
      </trkpt>
      <trkpt lat="48.39596" lon="2.54103">
        <ele>106</ele>
        <time>2009-12-06T10:41:12Z</time>
      </trkpt>
      <trkpt lat="48.396" lon="2.54083">
        <ele>106</ele>
        <time>2009-12-06T10:41:33Z</time>
      </trkpt>
      <trkpt lat="48.39605" lon="2.54064">
        <ele>106</ele>
        <time>2009-12-06T10:41:50Z</time>
      </trkpt>
      <trkpt lat="48.39618" lon="2.54053">
        <ele>101</ele>
        <time>2009-12-06T10:42:16Z</time>
      </trkpt>
      <trkpt lat="48.39627" lon="2.54032">
        <ele>100</ele>
        <time>2009-12-06T10:42:33Z</time>
      </trkpt>
      <trkpt lat="48.39621" lon="2.54013">
        <ele>105</ele>
        <time>2009-12-06T10:42:50Z</time>
      </trkpt>
      <trkpt lat="48.39605" lon="2.54008">
        <ele>112</ele>
        <time>2009-12-06T10:43:07Z</time>
      </trkpt>
      <trkpt lat="48.39596" lon="2.53984">
        <ele>116</ele>
        <time>2009-12-06T10:43:24Z</time>
      </trkpt>
      <trkpt lat="48.39596" lon="2.53963">
        <ele>116</ele>
        <time>2009-12-06T10:43:35Z</time>
      </trkpt>
      <trkpt lat="48.39602" lon="2.53944">
        <ele>115</ele>
        <time>2009-12-06T10:43:46Z</time>
      </trkpt>
      <trkpt lat="48.39602" lon="2.53918">
        <ele>115</ele>
        <time>2009-12-06T10:44:03Z</time>
      </trkpt>
      <trkpt lat="48.39603" lon="2.53896">
        <ele>113</ele>
        <time>2009-12-06T10:44:16Z</time>
      </trkpt>
      <trkpt lat="48.39614" lon="2.53878">
        <ele>109</ele>
        <time>2009-12-06T10:44:33Z</time>
      </trkpt>
      <trkpt lat="48.39621" lon="2.5386">
        <ele>106</ele>
        <time>2009-12-06T10:44:50Z</time>
      </trkpt>
      <trkpt lat="48.39635" lon="2.53852">
        <ele>102</ele>
        <time>2009-12-06T10:45:11Z</time>
      </trkpt>
      <trkpt lat="48.39642" lon="2.53833">
        <ele>102</ele>
        <time>2009-12-06T10:45:30Z</time>
      </trkpt>
      <trkpt lat="48.3965" lon="2.53815">
        <ele>102</ele>
        <time>2009-12-06T10:45:48Z</time>
      </trkpt>
      <trkpt lat="48.39638" lon="2.53803">
        <ele>108</ele>
        <time>2009-12-06T10:46:25Z</time>
      </trkpt>
      <trkpt lat="48.39624" lon="2.53807">
        <ele>111</ele>
        <time>2009-12-06T10:46:36Z</time>
      </trkpt>
      <trkpt lat="48.39611" lon="2.538">
        <ele>115</ele>
        <time>2009-12-06T10:47:06Z</time>
      </trkpt>
      <trkpt lat="48.39597" lon="2.538">
        <ele>118</ele>
        <time>2009-12-06T10:47:19Z</time>
      </trkpt>
      <trkpt lat="48.39584" lon="2.53803">
        <ele>119</ele>
        <time>2009-12-06T10:48:39Z</time>
      </trkpt>
      <trkpt lat="48.3957" lon="2.538">
        <ele>119</ele>
        <time>2009-12-06T10:48:49Z</time>
      </trkpt>
      <trkpt lat="48.39557" lon="2.53804">
        <ele>120</ele>
        <time>2009-12-06T10:49:01Z</time>
      </trkpt>
      <trkpt lat="48.39543" lon="2.53803">
        <ele>120</ele>
        <time>2009-12-06T10:49:11Z</time>
      </trkpt>
      <trkpt lat="48.3953" lon="2.53803">
        <ele>120</ele>
        <time>2009-12-06T10:49:21Z</time>
      </trkpt>
      <trkpt lat="48.39515" lon="2.53803">
        <ele>120</ele>
        <time>2009-12-06T10:49:32Z</time>
      </trkpt>
      <trkpt lat="48.39501" lon="2.53798">
        <ele>120</ele>
        <time>2009-12-06T10:49:43Z</time>
      </trkpt>
      <trkpt lat="48.39488" lon="2.53798">
        <ele>120</ele>
        <time>2009-12-06T10:49:55Z</time>
      </trkpt>
      <trkpt lat="48.39474" lon="2.538">
        <ele>120</ele>
        <time>2009-12-06T10:50:08Z</time>
      </trkpt>
      <trkpt lat="48.39462" lon="2.53789">
        <ele>120</ele>
        <time>2009-12-06T10:50:20Z</time>
      </trkpt>
      <trkpt lat="48.39456" lon="2.5377">
        <ele>120</ele>
        <time>2009-12-06T10:50:32Z</time>
      </trkpt>
      <trkpt lat="48.39443" lon="2.53764">
        <ele>120</ele>
        <time>2009-12-06T10:50:41Z</time>
      </trkpt>
      <trkpt lat="48.39429" lon="2.53771">
        <ele>120</ele>
        <time>2009-12-06T10:50:52Z</time>
      </trkpt>
      <trkpt lat="48.39416" lon="2.5377">
        <ele>120</ele>
        <time>2009-12-06T10:51:04Z</time>
      </trkpt>
      <trkpt lat="48.39402" lon="2.53765">
        <ele>120</ele>
        <time>2009-12-06T10:51:14Z</time>
      </trkpt>
      <trkpt lat="48.39389" lon="2.53758">
        <ele>120</ele>
        <time>2009-12-06T10:51:33Z</time>
      </trkpt>
      <trkpt lat="48.39375" lon="2.53767">
        <ele>119</ele>
        <time>2009-12-06T10:52:01Z</time>
      </trkpt>
      <trkpt lat="48.39363" lon="2.53777">
        <ele>119</ele>
        <time>2009-12-06T10:52:12Z</time>
      </trkpt>
      <trkpt lat="48.39354" lon="2.53795">
        <ele>119</ele>
        <time>2009-12-06T10:52:24Z</time>
      </trkpt>
      <trkpt lat="48.39344" lon="2.5381">
        <ele>118</ele>
        <time>2009-12-06T10:52:37Z</time>
      </trkpt>
      <trkpt lat="48.3933" lon="2.53816">
        <ele>118</ele>
        <time>2009-12-06T10:52:49Z</time>
      </trkpt>
      <trkpt lat="48.39315" lon="2.53827">
        <ele>117</ele>
        <time>2009-12-06T10:53:00Z</time>
      </trkpt>
      <trkpt lat="48.39302" lon="2.53831">
        <ele>117</ele>
        <time>2009-12-06T10:53:10Z</time>
      </trkpt>
      <trkpt lat="48.39288" lon="2.53834">
        <ele>116</ele>
        <time>2009-12-06T10:53:20Z</time>
      </trkpt>
      <trkpt lat="48.39279" lon="2.53813">
        <ele>115</ele>
        <time>2009-12-06T10:53:37Z</time>
      </trkpt>
      <trkpt lat="48.39266" lon="2.5381">
        <ele>114</ele>
        <time>2009-12-06T10:53:45Z</time>
      </trkpt>
      <trkpt lat="48.39261" lon="2.53789">
        <ele>113</ele>
        <time>2009-12-06T10:53:58Z</time>
      </trkpt>
      <trkpt lat="48.39255" lon="2.5377">
        <ele>113</ele>
        <time>2009-12-06T10:54:11Z</time>
      </trkpt>
      <trkpt lat="48.39254" lon="2.53749">
        <ele>114</ele>
        <time>2009-12-06T10:54:23Z</time>
      </trkpt>
      <trkpt lat="48.39255" lon="2.53726">
        <ele>114</ele>
        <time>2009-12-06T10:54:34Z</time>
      </trkpt>
      <trkpt lat="48.39254" lon="2.53705">
        <ele>115</ele>
        <time>2009-12-06T10:54:45Z</time>
      </trkpt>
      <trkpt lat="48.39257" lon="2.53684">
        <ele>116</ele>
        <time>2009-12-06T10:54:54Z</time>
      </trkpt>
      <trkpt lat="48.39255" lon="2.53663">
        <ele>116</ele>
        <time>2009-12-06T10:55:05Z</time>
      </trkpt>
      <trkpt lat="48.3926" lon="2.53644">
        <ele>116</ele>
        <time>2009-12-06T10:55:13Z</time>
      </trkpt>
      <trkpt lat="48.39264" lon="2.53624">
        <ele>117</ele>
        <time>2009-12-06T10:55:24Z</time>
      </trkpt>
      <trkpt lat="48.39269" lon="2.53605">
        <ele>117</ele>
        <time>2009-12-06T10:55:33Z</time>
      </trkpt>
      <trkpt lat="48.39264" lon="2.53582">
        <ele>117</ele>
        <time>2009-12-06T10:55:50Z</time>
      </trkpt>
      <trkpt lat="48.39254" lon="2.53566">
        <ele>116</ele>
        <time>2009-12-06T10:56:02Z</time>
      </trkpt>
      <trkpt lat="48.39255" lon="2.53545">
        <ele>117</ele>
        <time>2009-12-06T10:56:14Z</time>
      </trkpt>
      <trkpt lat="48.39248" lon="2.53525">
        <ele>116</ele>
        <time>2009-12-06T10:56:24Z</time>
      </trkpt>
      <trkpt lat="48.39246" lon="2.53504">
        <ele>117</ele>
        <time>2009-12-06T10:56:36Z</time>
      </trkpt>
      <trkpt lat="48.39246" lon="2.53483">
        <ele>117</ele>
        <time>2009-12-06T10:56:44Z</time>
      </trkpt>
      <trkpt lat="48.39246" lon="2.53461">
        <ele>117</ele>
        <time>2009-12-06T10:56:56Z</time>
      </trkpt>
      <trkpt lat="48.39246" lon="2.53438">
        <ele>117</ele>
        <time>2009-12-06T10:57:09Z</time>
      </trkpt>
      <trkpt lat="48.39242" lon="2.53417">
        <ele>117</ele>
        <time>2009-12-06T10:57:21Z</time>
      </trkpt>
      <trkpt lat="48.39239" lon="2.53396">
        <ele>117</ele>
        <time>2009-12-06T10:57:30Z</time>
      </trkpt>
      <trkpt lat="48.39236" lon="2.53375">
        <ele>117</ele>
        <time>2009-12-06T10:57:42Z</time>
      </trkpt>
      <trkpt lat="48.39227" lon="2.53359">
        <ele>118</ele>
        <time>2009-12-06T10:57:51Z</time>
      </trkpt>
      <trkpt lat="48.39213" lon="2.5335">
        <ele>118</ele>
        <time>2009-12-06T10:58:01Z</time>
      </trkpt>
      <trkpt lat="48.39201" lon="2.53339">
        <ele>118</ele>
        <time>2009-12-06T10:58:12Z</time>
      </trkpt>
      <trkpt lat="48.39188" lon="2.53333">
        <ele>118</ele>
        <time>2009-12-06T10:58:22Z</time>
      </trkpt>
      <trkpt lat="48.39173" lon="2.53326">
        <ele>119</ele>
        <time>2009-12-06T10:58:39Z</time>
      </trkpt>
      <trkpt lat="48.39159" lon="2.53333">
        <ele>119</ele>
        <time>2009-12-06T10:58:51Z</time>
      </trkpt>
      <trkpt lat="48.39146" lon="2.53336">
        <ele>119</ele>
        <time>2009-12-06T10:59:01Z</time>
      </trkpt>
      <trkpt lat="48.39132" lon="2.53347">
        <ele>120</ele>
        <time>2009-12-06T10:59:14Z</time>
      </trkpt>
      <trkpt lat="48.39119" lon="2.53356">
        <ele>120</ele>
        <time>2009-12-06T10:59:25Z</time>
      </trkpt>
      <trkpt lat="48.39105" lon="2.53354">
        <ele>121</ele>
        <time>2009-12-06T10:59:36Z</time>
      </trkpt>
      <trkpt lat="48.39092" lon="2.5335">
        <ele>120</ele>
        <time>2009-12-06T10:59:57Z</time>
      </trkpt>
      <trkpt lat="48.39078" lon="2.53348">
        <ele>120</ele>
        <time>2009-12-06T11:00:05Z</time>
      </trkpt>
      <trkpt lat="48.39065" lon="2.53353">
        <ele>119</ele>
        <time>2009-12-06T11:00:13Z</time>
      </trkpt>
      <trkpt lat="48.3905" lon="2.53362">
        <ele>120</ele>
        <time>2009-12-06T11:00:30Z</time>
      </trkpt>
      <trkpt lat="48.39036" lon="2.53368">
        <ele>119</ele>
        <time>2009-12-06T11:00:41Z</time>
      </trkpt>
      <trkpt lat="48.39029" lon="2.5335">
        <ele>120</ele>
        <time>2009-12-06T11:00:58Z</time>
      </trkpt>
      <trkpt lat="48.39041" lon="2.53335">
        <ele>119</ele>
        <time>2009-12-06T11:01:31Z</time>
      </trkpt>
      <trkpt lat="48.39056" lon="2.53332">
        <ele>119</ele>
        <time>2009-12-06T11:01:49Z</time>
      </trkpt>
      <trkpt lat="48.39066" lon="2.53317">
        <ele>119</ele>
        <time>2009-12-06T11:02:06Z</time>
      </trkpt>
      <trkpt lat="48.39059" lon="2.53299">
        <ele>118</ele>
        <time>2009-12-06T11:02:25Z</time>
      </trkpt>
      <trkpt lat="48.39053" lon="2.53279">
        <ele>117</ele>
        <time>2009-12-06T11:02:38Z</time>
      </trkpt>
      <trkpt lat="48.39044" lon="2.53263">
        <ele>116</ele>
        <time>2009-12-06T11:02:48Z</time>
      </trkpt>
      <trkpt lat="48.39048" lon="2.53243">
        <ele>116</ele>
        <time>2009-12-06T11:03:01Z</time>
      </trkpt>
      <trkpt lat="48.39045" lon="2.53222">
        <ele>116</ele>
        <time>2009-12-06T11:03:29Z</time>
      </trkpt>
      <trkpt lat="48.39044" lon="2.53201">
        <ele>116</ele>
        <time>2009-12-06T11:03:46Z</time>
      </trkpt>
      <trkpt lat="48.39047" lon="2.53179">
        <ele>117</ele>
        <time>2009-12-06T11:03:58Z</time>
      </trkpt>
      <trkpt lat="48.39053" lon="2.53159">
        <ele>118</ele>
        <time>2009-12-06T11:04:10Z</time>
      </trkpt>
      <trkpt lat="48.3906" lon="2.53138">
        <ele>120</ele>
        <time>2009-12-06T11:04:22Z</time>
      </trkpt>
      <trkpt lat="48.3906" lon="2.53117">
        <ele>120</ele>
        <time>2009-12-06T11:04:35Z</time>
      </trkpt>
      <trkpt lat="48.39063" lon="2.53096">
        <ele>120</ele>
        <time>2009-12-06T11:04:46Z</time>
      </trkpt>
      <trkpt lat="48.39065" lon="2.53072">
        <ele>120</ele>
        <time>2009-12-06T11:04:58Z</time>
      </trkpt>
      <trkpt lat="48.39066" lon="2.53047">
        <ele>120</ele>
        <time>2009-12-06T11:05:15Z</time>
      </trkpt>
      <trkpt lat="48.39068" lon="2.53024">
        <ele>119</ele>
        <time>2009-12-06T11:05:33Z</time>
      </trkpt>
      <trkpt lat="48.39071" lon="2.53003">
        <ele>119</ele>
        <time>2009-12-06T11:05:46Z</time>
      </trkpt>
      <trkpt lat="48.39075" lon="2.52984">
        <ele>119</ele>
        <time>2009-12-06T11:05:57Z</time>
      </trkpt>
      <trkpt lat="48.39075" lon="2.52957">
        <ele>118</ele>
        <time>2009-12-06T11:06:14Z</time>
      </trkpt>
      <trkpt lat="48.39081" lon="2.52937">
        <ele>118</ele>
        <time>2009-12-06T11:06:34Z</time>
      </trkpt>
      <trkpt lat="48.3909" lon="2.52918">
        <ele>117</ele>
        <time>2009-12-06T11:06:51Z</time>
      </trkpt>
      <trkpt lat="48.39104" lon="2.5291">
        <ele>116</ele>
        <time>2009-12-06T11:07:08Z</time>
      </trkpt>
      <trkpt lat="48.39117" lon="2.52904">
        <ele>116</ele>
        <time>2009-12-06T11:07:26Z</time>
      </trkpt>
      <trkpt lat="48.39125" lon="2.52885">
        <ele>116</ele>
        <time>2009-12-06T11:07:38Z</time>
      </trkpt>
      <trkpt lat="48.39125" lon="2.52858">
        <ele>116</ele>
        <time>2009-12-06T11:07:55Z</time>
      </trkpt>
      <trkpt lat="48.39125" lon="2.52835">
        <ele>115</ele>
        <time>2009-12-06T11:08:06Z</time>
      </trkpt>
      <trkpt lat="48.39128" lon="2.52814">
        <ele>114</ele>
        <time>2009-12-06T11:08:18Z</time>
      </trkpt>
      <trkpt lat="48.39132" lon="2.52789">
        <ele>113</ele>
        <time>2009-12-06T11:08:35Z</time>
      </trkpt>
      <trkpt lat="48.39131" lon="2.52768">
        <ele>111</ele>
        <time>2009-12-06T11:08:48Z</time>
      </trkpt>
      <trkpt lat="48.39137" lon="2.52748">
        <ele>108</ele>
        <time>2009-12-06T11:09:01Z</time>
      </trkpt>
      <trkpt lat="48.39149" lon="2.52738">
        <ele>105</ele>
        <time>2009-12-06T11:09:18Z</time>
      </trkpt>
      <trkpt lat="48.39161" lon="2.52727">
        <ele>105</ele>
        <time>2009-12-06T11:09:27Z</time>
      </trkpt>
      <trkpt lat="48.39174" lon="2.52733">
        <ele>108</ele>
        <time>2009-12-06T11:09:40Z</time>
      </trkpt>
      <trkpt lat="48.39188" lon="2.52742">
        <ele>111</ele>
        <time>2009-12-06T11:09:58Z</time>
      </trkpt>
      <trkpt lat="48.39201" lon="2.52744">
        <ele>114</ele>
        <time>2009-12-06T11:10:25Z</time>
      </trkpt>
      <trkpt lat="48.39215" lon="2.52744">
        <ele>115</ele>
        <time>2009-12-06T11:10:35Z</time>
      </trkpt>
      <trkpt lat="48.3923" lon="2.52757">
        <ele>117</ele>
        <time>2009-12-06T11:10:52Z</time>
      </trkpt>
      <trkpt lat="48.39243" lon="2.52763">
        <ele>118</ele>
        <time>2009-12-06T11:11:09Z</time>
      </trkpt>
      <trkpt lat="48.39257" lon="2.52781">
        <ele>116</ele>
        <time>2009-12-06T11:11:26Z</time>
      </trkpt>
      <trkpt lat="48.39275" lon="2.52795">
        <ele>115</ele>
        <time>2009-12-06T11:11:43Z</time>
      </trkpt>
      <trkpt lat="48.39288" lon="2.52802">
        <ele>114</ele>
        <time>2009-12-06T11:12:02Z</time>
      </trkpt>
      <trkpt lat="48.39302" lon="2.52792">
        <ele>114</ele>
        <time>2009-12-06T11:12:19Z</time>
      </trkpt>
      <trkpt lat="48.39314" lon="2.52781">
        <ele>115</ele>
        <time>2009-12-06T11:12:31Z</time>
      </trkpt>
      <trkpt lat="48.39327" lon="2.52775">
        <ele>115</ele>
        <time>2009-12-06T11:12:42Z</time>
      </trkpt>
      <trkpt lat="48.39344" lon="2.5276">
        <ele>116</ele>
        <time>2009-12-06T11:12:59Z</time>
      </trkpt>
      <trkpt lat="48.39356" lon="2.52738">
        <ele>116</ele>
        <time>2009-12-06T11:13:16Z</time>
      </trkpt>
      <trkpt lat="48.39371" lon="2.52727">
        <ele>117</ele>
        <time>2009-12-06T11:13:33Z</time>
      </trkpt>
      <trkpt lat="48.39381" lon="2.52712">
        <ele>117</ele>
        <time>2009-12-06T11:13:55Z</time>
      </trkpt>
      <trkpt lat="48.39389" lon="2.5273">
        <ele>118</ele>
        <time>2009-12-06T11:14:13Z</time>
      </trkpt>
      <trkpt lat="48.39404" lon="2.52735">
        <ele>119</ele>
        <time>2009-12-06T11:14:30Z</time>
      </trkpt>
      <trkpt lat="48.39417" lon="2.52739">
        <ele>119</ele>
        <time>2009-12-06T11:14:49Z</time>
      </trkpt>
      <trkpt lat="48.39431" lon="2.52744">
        <ele>120</ele>
        <time>2009-12-06T11:15:07Z</time>
      </trkpt>
      <trkpt lat="48.39444" lon="2.5275">
        <ele>120</ele>
        <time>2009-12-06T11:15:28Z</time>
      </trkpt>
      <trkpt lat="48.39458" lon="2.5275">
        <ele>120</ele>
        <time>2009-12-06T11:15:40Z</time>
      </trkpt>
      <trkpt lat="48.39471" lon="2.52753">
        <ele>119</ele>
        <time>2009-12-06T11:15:49Z</time>
      </trkpt>
      <trkpt lat="48.39485" lon="2.52759">
        <ele>119</ele>
        <time>2009-12-06T11:15:59Z</time>
      </trkpt>
      <trkpt lat="48.39498" lon="2.52762">
        <ele>118</ele>
        <time>2009-12-06T11:16:10Z</time>
      </trkpt>
      <trkpt lat="48.39513" lon="2.52762">
        <ele>118</ele>
        <time>2009-12-06T11:16:20Z</time>
      </trkpt>
      <trkpt lat="48.39527" lon="2.52759">
        <ele>116</ele>
        <time>2009-12-06T11:16:31Z</time>
      </trkpt>
      <trkpt lat="48.3954" lon="2.52759">
        <ele>115</ele>
        <time>2009-12-06T11:16:44Z</time>
      </trkpt>
      <trkpt lat="48.39552" lon="2.52747">
        <ele>113</ele>
        <time>2009-12-06T11:16:53Z</time>
      </trkpt>
      <trkpt lat="48.39564" lon="2.52736">
        <ele>111</ele>
        <time>2009-12-06T11:17:03Z</time>
      </trkpt>
      <trkpt lat="48.39579" lon="2.52741">
        <ele>108</ele>
        <time>2009-12-06T11:17:20Z</time>
      </trkpt>
      <trkpt lat="48.39593" lon="2.52748">
        <ele>106</ele>
        <time>2009-12-06T11:17:33Z</time>
      </trkpt>
      <trkpt lat="48.39606" lon="2.52753">
        <ele>105</ele>
        <time>2009-12-06T11:17:51Z</time>
      </trkpt>
      <trkpt lat="48.3962" lon="2.52757">
        <ele>108</ele>
        <time>2009-12-06T11:18:02Z</time>
      </trkpt>
      <trkpt lat="48.39632" lon="2.52771">
        <ele>112</ele>
        <time>2009-12-06T11:18:14Z</time>
      </trkpt>
      <trkpt lat="48.39636" lon="2.52798">
        <ele>115</ele>
        <time>2009-12-06T11:18:31Z</time>
      </trkpt>
      <trkpt lat="48.39638" lon="2.5282">
        <ele>116</ele>
        <time>2009-12-06T11:18:44Z</time>
      </trkpt>
      <trkpt lat="48.3963" lon="2.52849">
        <ele>115</ele>
        <time>2009-12-06T11:19:01Z</time>
      </trkpt>
      <trkpt lat="48.39633" lon="2.52871">
        <ele>116</ele>
        <time>2009-12-06T11:19:13Z</time>
      </trkpt>
      <trkpt lat="48.3963" lon="2.52892">
        <ele>116</ele>
        <time>2009-12-06T11:19:25Z</time>
      </trkpt>
      <trkpt lat="48.39623" lon="2.5291">
        <ele>115</ele>
        <time>2009-12-06T11:19:36Z</time>
      </trkpt>
      <trkpt lat="48.39615" lon="2.52928">
        <ele>114</ele>
        <time>2009-12-06T11:19:45Z</time>
      </trkpt>
      <trkpt lat="48.39617" lon="2.52954">
        <ele>116</ele>
        <time>2009-12-06T11:20:02Z</time>
      </trkpt>
      <trkpt lat="48.39629" lon="2.52964">
        <ele>118</ele>
        <time>2009-12-06T11:20:21Z</time>
      </trkpt>
      <trkpt lat="48.39641" lon="2.52975">
        <ele>121</ele>
        <time>2009-12-06T11:21:01Z</time>
      </trkpt>
      <trkpt lat="48.39654" lon="2.52982">
        <ele>122</ele>
        <time>2009-12-06T11:21:23Z</time>
      </trkpt>
      <trkpt lat="48.39668" lon="2.5299">
        <ele>122</ele>
        <time>2009-12-06T11:21:41Z</time>
      </trkpt>
      <trkpt lat="48.39683" lon="2.52988">
        <ele>122</ele>
        <time>2009-12-06T11:21:52Z</time>
      </trkpt>
      <trkpt lat="48.39696" lon="2.5299">
        <ele>122</ele>
        <time>2009-12-06T11:22:04Z</time>
      </trkpt>
      <trkpt lat="48.39704" lon="2.52969">
        <ele>122</ele>
        <time>2009-12-06T11:22:16Z</time>
      </trkpt>
      <trkpt lat="48.39711" lon="2.52951">
        <ele>122</ele>
        <time>2009-12-06T11:22:29Z</time>
      </trkpt>
      <trkpt lat="48.39726" lon="2.52961">
        <ele>122</ele>
        <time>2009-12-06T11:22:46Z</time>
      </trkpt>
      <trkpt lat="48.39743" lon="2.52955">
        <ele>121</ele>
        <time>2009-12-06T11:23:03Z</time>
      </trkpt>
      <trkpt lat="48.39753" lon="2.5294">
        <ele>120</ele>
        <time>2009-12-06T11:23:16Z</time>
      </trkpt>
      <trkpt lat="48.39758" lon="2.52919">
        <ele>119</ele>
        <time>2009-12-06T11:23:28Z</time>
      </trkpt>
      <trkpt lat="48.39765" lon="2.52898">
        <ele>118</ele>
        <time>2009-12-06T11:23:45Z</time>
      </trkpt>
      <trkpt lat="48.39774" lon="2.52874">
        <ele>117</ele>
        <time>2009-12-06T11:24:02Z</time>
      </trkpt>
      <trkpt lat="48.3978" lon="2.52855">
        <ele>116</ele>
        <time>2009-12-06T11:24:23Z</time>
      </trkpt>
      <trkpt lat="48.39794" lon="2.52844">
        <ele>116</ele>
        <time>2009-12-06T11:24:40Z</time>
      </trkpt>
      <trkpt lat="48.39809" lon="2.52835">
        <ele>116</ele>
        <time>2009-12-06T11:24:57Z</time>
      </trkpt>
      <trkpt lat="48.39822" lon="2.52846">
        <ele>114</ele>
        <time>2009-12-06T11:25:14Z</time>
      </trkpt>
      <trkpt lat="48.39833" lon="2.52831">
        <ele>113</ele>
        <time>2009-12-06T11:25:26Z</time>
      </trkpt>
      <trkpt lat="48.39837" lon="2.52811">
        <ele>112</ele>
        <time>2009-12-06T11:25:47Z</time>
      </trkpt>
      <trkpt lat="48.39828" lon="2.52795">
        <ele>114</ele>
        <time>2009-12-06T11:26:10Z</time>
      </trkpt>
      <trkpt lat="48.39821" lon="2.52774">
        <ele>115</ele>
        <time>2009-12-06T11:26:27Z</time>
      </trkpt>
      <trkpt lat="48.39819" lon="2.52753">
        <ele>114</ele>
        <time>2009-12-06T11:26:39Z</time>
      </trkpt>
      <trkpt lat="48.39815" lon="2.52733">
        <ele>113</ele>
        <time>2009-12-06T11:26:51Z</time>
      </trkpt>
      <trkpt lat="48.39798" lon="2.52736">
        <ele>118</ele>
        <time>2009-12-06T11:27:08Z</time>
      </trkpt>
      <trkpt lat="48.39785" lon="2.52732">
        <ele>122</ele>
        <time>2009-12-06T11:27:20Z</time>
      </trkpt>
      <trkpt lat="48.39776" lon="2.52714">
        <ele>123</ele>
        <time>2009-12-06T11:27:33Z</time>
      </trkpt>
      <trkpt lat="48.39777" lon="2.52693">
        <ele>123</ele>
        <time>2009-12-06T11:27:45Z</time>
      </trkpt>
      <trkpt lat="48.39783" lon="2.52673">
        <ele>122</ele>
        <time>2009-12-06T11:28:02Z</time>
      </trkpt>
      <trkpt lat="48.39785" lon="2.52652">
        <ele>121</ele>
        <time>2009-12-06T11:28:13Z</time>
      </trkpt>
      <trkpt lat="48.39791" lon="2.52633">
        <ele>119</ele>
        <time>2009-12-06T11:28:26Z</time>
      </trkpt>
      <trkpt lat="48.39801" lon="2.52607">
        <ele>115</ele>
        <time>2009-12-06T11:28:45Z</time>
      </trkpt>
      <trkpt lat="48.39809" lon="2.52589">
        <ele>113</ele>
        <time>2009-12-06T11:28:58Z</time>
      </trkpt>
      <trkpt lat="48.39819" lon="2.52574">
        <ele>110</ele>
        <time>2009-12-06T11:29:11Z</time>
      </trkpt>
      <trkpt lat="48.3983" lon="2.52561">
        <ele>108</ele>
        <time>2009-12-06T11:29:40Z</time>
      </trkpt>
      <trkpt lat="48.39831" lon="2.5254">
        <ele>109</ele>
        <time>2009-12-06T11:29:59Z</time>
      </trkpt>
      <trkpt lat="48.39831" lon="2.52514">
        <ele>112</ele>
        <time>2009-12-06T11:30:16Z</time>
      </trkpt>
      <trkpt lat="48.39833" lon="2.52493">
        <ele>113</ele>
        <time>2009-12-06T11:30:34Z</time>
      </trkpt>
      <trkpt lat="48.39837" lon="2.52471">
        <ele>113</ele>
        <time>2009-12-06T11:30:51Z</time>
      </trkpt>
      <trkpt lat="48.39843" lon="2.5245">
        <ele>113</ele>
        <time>2009-12-06T11:31:04Z</time>
      </trkpt>
      <trkpt lat="48.39851" lon="2.52427">
        <ele>112</ele>
        <time>2009-12-06T11:31:21Z</time>
      </trkpt>
      <trkpt lat="48.39852" lon="2.52405">
        <ele>114</ele>
        <time>2009-12-06T11:31:34Z</time>
      </trkpt>
      <trkpt lat="48.39849" lon="2.52384">
        <ele>117</ele>
        <time>2009-12-06T11:31:52Z</time>
      </trkpt>
      <trkpt lat="48.39849" lon="2.52363">
        <ele>120</ele>
        <time>2009-12-06T11:32:18Z</time>
      </trkpt>
      <trkpt lat="48.39863" lon="2.52354">
        <ele>118</ele>
        <time>2009-12-06T11:32:44Z</time>
      </trkpt>
      <trkpt lat="48.39879" lon="2.52348">
        <ele>115</ele>
        <time>2009-12-06T11:33:01Z</time>
      </trkpt>
      <trkpt lat="48.3989" lon="2.52334">
        <ele>115</ele>
        <time>2009-12-06T11:33:13Z</time>
      </trkpt>
      <trkpt lat="48.39902" lon="2.52322">
        <ele>115</ele>
        <time>2009-12-06T11:33:32Z</time>
      </trkpt>
      <trkpt lat="48.39915" lon="2.5233">
        <ele>109</ele>
        <time>2009-12-06T11:33:50Z</time>
      </trkpt>
      <trkpt lat="48.39929" lon="2.52334">
        <ele>103</ele>
        <time>2009-12-06T11:34:01Z</time>
      </trkpt>
      <trkpt lat="48.39942" lon="2.52328">
        <ele>101</ele>
        <time>2009-12-06T11:34:18Z</time>
      </trkpt>
      <trkpt lat="48.39956" lon="2.52319">
        <ele>99</ele>
        <time>2009-12-06T11:34:36Z</time>
      </trkpt>
      <trkpt lat="48.39963" lon="2.52301">
        <ele>101</ele>
        <time>2009-12-06T11:34:54Z</time>
      </trkpt>
      <trkpt lat="48.39969" lon="2.52282">
        <ele>104</ele>
        <time>2009-12-06T11:35:19Z</time>
      </trkpt>
      <trkpt lat="48.39981" lon="2.5227">
        <ele>103</ele>
        <time>2009-12-06T11:35:40Z</time>
      </trkpt>
      <trkpt lat="48.39986" lon="2.52249">
        <ele>107</ele>
        <time>2009-12-06T11:35:53Z</time>
      </trkpt>
      <trkpt lat="48.39978" lon="2.52231">
        <ele>111</ele>
        <time>2009-12-06T11:36:22Z</time>
      </trkpt>
      <trkpt lat="48.39965" lon="2.52225">
        <ele>116</ele>
        <time>2009-12-06T11:36:44Z</time>
      </trkpt>
      <trkpt lat="48.39953" lon="2.52243">
        <ele>118</ele>
        <time>2009-12-06T11:37:01Z</time>
      </trkpt>
      <trkpt lat="48.39941" lon="2.52264">
        <ele>117</ele>
        <time>2009-12-06T11:37:19Z</time>
      </trkpt>
      <trkpt lat="48.39927" lon="2.52274">
        <ele>118</ele>
        <time>2009-12-06T11:37:36Z</time>
      </trkpt>
      <trkpt lat="48.39914" lon="2.5227">
        <ele>122</ele>
        <time>2009-12-06T11:37:47Z</time>
      </trkpt>
      <trkpt lat="48.399" lon="2.52273">
        <ele>123</ele>
        <time>2009-12-06T11:38:00Z</time>
      </trkpt>
      <trkpt lat="48.39888" lon="2.52258">
        <ele>126</ele>
        <time>2009-12-06T11:38:17Z</time>
      </trkpt>
      <trkpt lat="48.39875" lon="2.52253">
        <ele>127</ele>
        <time>2009-12-06T11:38:35Z</time>
      </trkpt>
      <trkpt lat="48.39866" lon="2.52237">
        <ele>126</ele>
        <time>2009-12-06T11:39:08Z</time>
      </trkpt>
      <trkpt lat="48.3986" lon="2.52217">
        <ele>126</ele>
        <time>2009-12-06T11:39:57Z</time>
      </trkpt>
      <trkpt lat="48.39855" lon="2.52196">
        <ele>125</ele>
        <time>2009-12-06T11:40:14Z</time>
      </trkpt>
      <trkpt lat="48.39866" lon="2.52183">
        <ele>124</ele>
        <time>2009-12-06T11:40:25Z</time>
      </trkpt>
      <trkpt lat="48.39866" lon="2.5216">
        <ele>118</ele>
        <time>2009-12-06T11:40:42Z</time>
      </trkpt>
      <trkpt lat="48.3987" lon="2.52139">
        <ele>111</ele>
        <time>2009-12-06T11:40:59Z</time>
      </trkpt>
      <trkpt lat="48.39875" lon="2.5212">
        <ele>103</ele>
        <time>2009-12-06T11:41:25Z</time>
      </trkpt>
      <trkpt lat="48.39866" lon="2.521">
        <ele>103</ele>
        <time>2009-12-06T11:41:42Z</time>
      </trkpt>
      <trkpt lat="48.39881" lon="2.52096">
        <ele>99</ele>
        <time>2009-12-06T11:41:47Z</time>
      </trkpt>
      <trkpt lat="48.39893" lon="2.52085">
        <ele>95</ele>
        <time>2009-12-06T11:41:54Z</time>
      </trkpt>
      <trkpt lat="48.399" lon="2.52067">
        <ele>92</ele>
        <time>2009-12-06T11:42:05Z</time>
      </trkpt>
      <trkpt lat="48.39896" lon="2.52048">
        <ele>92</ele>
        <time>2009-12-06T11:42:24Z</time>
      </trkpt>
      <trkpt lat="48.39884" lon="2.52037">
        <ele>95</ele>
        <time>2009-12-06T11:42:44Z</time>
      </trkpt>
      <trkpt lat="48.3987" lon="2.52028">
        <ele>97</ele>
        <time>2009-12-06T11:43:02Z</time>
      </trkpt>
      <trkpt lat="48.39866" lon="2.52009">
        <ele>98</ele>
        <time>2009-12-06T11:43:22Z</time>
      </trkpt>
      <trkpt lat="48.39876" lon="2.51994">
        <ele>97</ele>
        <time>2009-12-06T11:43:39Z</time>
      </trkpt>
      <trkpt lat="48.39875" lon="2.51971">
        <ele>96</ele>
        <time>2009-12-06T11:43:56Z</time>
      </trkpt>
      <trkpt lat="48.39876" lon="2.51947">
        <ele>94</ele>
        <time>2009-12-06T11:44:13Z</time>
      </trkpt>
      <trkpt lat="48.3987" lon="2.51926">
        <ele>91</ele>
        <time>2009-12-06T11:44:35Z</time>
      </trkpt>
      <trkpt lat="48.39866" lon="2.51907">
        <ele>89</ele>
        <time>2009-12-06T11:44:45Z</time>
      </trkpt>
      <trkpt lat="48.39863" lon="2.51886">
        <ele>85</ele>
        <time>2009-12-06T11:44:56Z</time>
      </trkpt>
      <trkpt lat="48.39855" lon="2.51868">
        <ele>83</ele>
        <time>2009-12-06T11:45:09Z</time>
      </trkpt>
      <trkpt lat="48.39851" lon="2.51848">
        <ele>80</ele>
        <time>2009-12-06T11:45:22Z</time>
      </trkpt>
      <trkpt lat="48.39842" lon="2.51832">
        <ele>81</ele>
        <time>2009-12-06T11:45:31Z</time>
      </trkpt>
      <trkpt lat="48.39839" lon="2.51805">
        <ele>82</ele>
        <time>2009-12-06T11:45:48Z</time>
      </trkpt>
      <trkpt lat="48.39843" lon="2.51782">
        <ele>83</ele>
        <time>2009-12-06T11:46:05Z</time>
      </trkpt>
      <trkpt lat="48.39845" lon="2.51761">
        <ele>83</ele>
        <time>2009-12-06T11:46:15Z</time>
      </trkpt>
      <trkpt lat="48.39831" lon="2.51764">
        <ele>85</ele>
        <time>2009-12-06T11:46:46Z</time>
      </trkpt>
      <trkpt lat="48.39821" lon="2.51778">
        <ele>86</ele>
        <time>2009-12-06T11:46:59Z</time>
      </trkpt>
      <trkpt lat="48.39806" lon="2.51785">
        <ele>88</ele>
        <time>2009-12-06T11:47:16Z</time>
      </trkpt>
      <trkpt lat="48.39798" lon="2.51805">
        <ele>88</ele>
        <time>2009-12-06T11:47:34Z</time>
      </trkpt>
      <trkpt lat="48.39785" lon="2.51815">
        <ele>89</ele>
        <time>2009-12-06T11:47:45Z</time>
      </trkpt>
      <trkpt lat="48.39768" lon="2.51817">
        <ele>91</ele>
        <time>2009-12-06T11:48:02Z</time>
      </trkpt>
      <trkpt lat="48.39755" lon="2.51823">
        <ele>92</ele>
        <time>2009-12-06T11:48:21Z</time>
      </trkpt>
      <trkpt lat="48.3974" lon="2.51814">
        <ele>95</ele>
        <time>2009-12-06T11:48:43Z</time>
      </trkpt>
      <trkpt lat="48.39737" lon="2.51793">
        <ele>96</ele>
        <time>2009-12-06T11:49:12Z</time>
      </trkpt>
      <trkpt lat="48.39723" lon="2.51781">
        <ele>101</ele>
        <time>2009-12-06T11:49:21Z</time>
      </trkpt>
      <trkpt lat="48.3971" lon="2.51772">
        <ele>105</ele>
        <time>2009-12-06T11:49:33Z</time>
      </trkpt>
      <trkpt lat="48.39711" lon="2.51751">
        <ele>102</ele>
        <time>2009-12-06T11:49:46Z</time>
      </trkpt>
      <trkpt lat="48.39705" lon="2.51731">
        <ele>102</ele>
        <time>2009-12-06T11:50:04Z</time>
      </trkpt>
      <trkpt lat="48.39698" lon="2.51713">
        <ele>102</ele>
        <time>2009-12-06T11:50:17Z</time>
      </trkpt>
      <trkpt lat="48.39689" lon="2.51697">
        <ele>102</ele>
        <time>2009-12-06T11:50:41Z</time>
      </trkpt>
      <trkpt lat="48.39675" lon="2.51695">
        <ele>106</ele>
        <time>2009-12-06T11:50:53Z</time>
      </trkpt>
      <trkpt lat="48.39662" lon="2.51683">
        <ele>109</ele>
        <time>2009-12-06T11:51:10Z</time>
      </trkpt>
      <trkpt lat="48.39648" lon="2.51677">
        <ele>112</ele>
        <time>2009-12-06T11:51:18Z</time>
      </trkpt>
      <trkpt lat="48.39632" lon="2.51688">
        <ele>114</ele>
        <time>2009-12-06T11:51:35Z</time>
      </trkpt>
      <trkpt lat="48.39618" lon="2.51683">
        <ele>115</ele>
        <time>2009-12-06T11:51:48Z</time>
      </trkpt>
      <trkpt lat="48.39609" lon="2.517">
        <ele>116</ele>
        <time>2009-12-06T11:52:12Z</time>
      </trkpt>
      <trkpt lat="48.39603" lon="2.51719">
        <ele>117</ele>
        <time>2009-12-06T11:52:24Z</time>
      </trkpt>
      <trkpt lat="48.396" lon="2.5174">
        <ele>117</ele>
        <time>2009-12-06T11:52:36Z</time>
      </trkpt>
      <trkpt lat="48.39599" lon="2.51761">
        <ele>116</ele>
        <time>2009-12-06T11:52:48Z</time>
      </trkpt>
      <trkpt lat="48.39593" lon="2.51781">
        <ele>116</ele>
        <time>2009-12-06T11:53:01Z</time>
      </trkpt>
      <trkpt lat="48.39585" lon="2.51799">
        <ele>116</ele>
        <time>2009-12-06T11:53:23Z</time>
      </trkpt>
      <trkpt lat="48.39573" lon="2.51809">
        <ele>116</ele>
        <time>2009-12-06T11:54:05Z</time>
      </trkpt>
      <trkpt lat="48.39561" lon="2.5182">
        <ele>116</ele>
        <time>2009-12-06T11:54:29Z</time>
      </trkpt>
      <trkpt lat="48.39554" lon="2.51838">
        <ele>116</ele>
        <time>2009-12-06T11:54:46Z</time>
      </trkpt>
      <trkpt lat="48.39545" lon="2.51854">
        <ele>115</ele>
        <time>2009-12-06T11:54:58Z</time>
      </trkpt>
      <trkpt lat="48.39537" lon="2.51872">
        <ele>114</ele>
        <time>2009-12-06T11:55:10Z</time>
      </trkpt>
      <trkpt lat="48.39533" lon="2.51893">
        <ele>114</ele>
        <time>2009-12-06T11:55:27Z</time>
      </trkpt>
      <trkpt lat="48.39536" lon="2.51914">
        <ele>116</ele>
        <time>2009-12-06T11:55:38Z</time>
      </trkpt>
      <trkpt lat="48.39536" lon="2.51937">
        <ele>116</ele>
        <time>2009-12-06T11:55:49Z</time>
      </trkpt>
      <trkpt lat="48.39525" lon="2.5195">
        <ele>116</ele>
        <time>2009-12-06T11:56:18Z</time>
      </trkpt>
      <trkpt lat="48.39512" lon="2.51956">
        <ele>116</ele>
        <time>2009-12-06T11:56:40Z</time>
      </trkpt>
      <trkpt lat="48.39501" lon="2.5197">
        <ele>115</ele>
        <time>2009-12-06T11:57:12Z</time>
      </trkpt>
      <trkpt lat="48.39501" lon="2.51991">
        <ele>115</ele>
        <time>2009-12-06T11:57:46Z</time>
      </trkpt>
      <trkpt lat="48.39501" lon="2.52013">
        <ele>116</ele>
        <time>2009-12-06T11:58:03Z</time>
      </trkpt>
      <trkpt lat="48.39501" lon="2.5204">
        <ele>117</ele>
        <time>2009-12-06T11:58:20Z</time>
      </trkpt>
      <trkpt lat="48.39495" lon="2.5206">
        <ele>117</ele>
        <time>2009-12-06T11:58:37Z</time>
      </trkpt>
      <trkpt lat="48.395" lon="2.52081">
        <ele>117</ele>
        <time>2009-12-06T11:58:49Z</time>
      </trkpt>
      <trkpt lat="48.39492" lon="2.52099">
        <ele>117</ele>
        <time>2009-12-06T11:59:02Z</time>
      </trkpt>
      <trkpt lat="48.39494" lon="2.5212">
        <ele>117</ele>
        <time>2009-12-06T11:59:29Z</time>
      </trkpt>
      <trkpt lat="48.39483" lon="2.52133">
        <ele>117</ele>
        <time>2009-12-06T11:59:39Z</time>
      </trkpt>
      <trkpt lat="48.39468" lon="2.52144">
        <ele>117</ele>
        <time>2009-12-06T11:59:46Z</time>
      </trkpt>
      <trkpt lat="48.39458" lon="2.52159">
        <ele>116</ele>
        <time>2009-12-06T11:59:56Z</time>
      </trkpt>
      <trkpt lat="48.39452" lon="2.5218">
        <ele>117</ele>
        <time>2009-12-06T12:00:13Z</time>
      </trkpt>
      <trkpt lat="48.3945" lon="2.52204">
        <ele>116</ele>
        <time>2009-12-06T12:00:30Z</time>
      </trkpt>
      <trkpt lat="48.3944" lon="2.52219">
        <ele>115</ele>
        <time>2009-12-06T12:00:40Z</time>
      </trkpt>
      <trkpt lat="48.39426" lon="2.52229">
        <ele>114</ele>
        <time>2009-12-06T12:00:53Z</time>
      </trkpt>
      <trkpt lat="48.39411" lon="2.52238">
        <ele>113</ele>
        <time>2009-12-06T12:01:12Z</time>
      </trkpt>
      <trkpt lat="48.39398" lon="2.52232">
        <ele>112</ele>
        <time>2009-12-06T12:01:21Z</time>
      </trkpt>
      <trkpt lat="48.39384" lon="2.52228">
        <ele>111</ele>
        <time>2009-12-06T12:01:28Z</time>
      </trkpt>
      <trkpt lat="48.39372" lon="2.5224">
        <ele>110</ele>
        <time>2009-12-06T12:01:47Z</time>
      </trkpt>
      <trkpt lat="48.39365" lon="2.52259">
        <ele>110</ele>
        <time>2009-12-06T12:02:00Z</time>
      </trkpt>
      <trkpt lat="48.39365" lon="2.52283">
        <ele>109</ele>
        <time>2009-12-06T12:02:17Z</time>
      </trkpt>
      <trkpt lat="48.39363" lon="2.52304">
        <ele>108</ele>
        <time>2009-12-06T12:02:30Z</time>
      </trkpt>
      <trkpt lat="48.3936" lon="2.52325">
        <ele>107</ele>
        <time>2009-12-06T12:02:41Z</time>
      </trkpt>
      <trkpt lat="48.3936" lon="2.52346">
        <ele>107</ele>
        <time>2009-12-06T12:02:53Z</time>
      </trkpt>
      <trkpt lat="48.39357" lon="2.5237">
        <ele>106</ele>
        <time>2009-12-06T12:03:11Z</time>
      </trkpt>
      <trkpt lat="48.39357" lon="2.52396">
        <ele>106</ele>
        <time>2009-12-06T12:03:28Z</time>
      </trkpt>
      <trkpt lat="48.39359" lon="2.52418">
        <ele>108</ele>
        <time>2009-12-06T12:03:39Z</time>
      </trkpt>
      <trkpt lat="48.39362" lon="2.52441">
        <ele>110</ele>
        <time>2009-12-06T12:03:50Z</time>
      </trkpt>
      <trkpt lat="48.39374" lon="2.52453">
        <ele>113</ele>
        <time>2009-12-06T12:03:59Z</time>
      </trkpt>
      <trkpt lat="48.39383" lon="2.52469">
        <ele>114</ele>
        <time>2009-12-06T12:04:11Z</time>
      </trkpt>
      <trkpt lat="48.3939" lon="2.52487">
        <ele>115</ele>
        <time>2009-12-06T12:04:42Z</time>
      </trkpt>
      <trkpt lat="48.39395" lon="2.52507">
        <ele>116</ele>
        <time>2009-12-06T12:05:02Z</time>
      </trkpt>
      <trkpt lat="48.39407" lon="2.52519">
        <ele>117</ele>
        <time>2009-12-06T12:05:11Z</time>
      </trkpt>
      <trkpt lat="48.39405" lon="2.52543">
        <ele>117</ele>
        <time>2009-12-06T12:05:28Z</time>
      </trkpt>
      <trkpt lat="48.39402" lon="2.52564">
        <ele>117</ele>
        <time>2009-12-06T12:05:39Z</time>
      </trkpt>
      <trkpt lat="48.39398" lon="2.52583">
        <ele>117</ele>
        <time>2009-12-06T12:05:50Z</time>
      </trkpt>
      <trkpt lat="48.39399" lon="2.52604">
        <ele>117</ele>
        <time>2009-12-06T12:05:59Z</time>
      </trkpt>
      <trkpt lat="48.39393" lon="2.52624">
        <ele>116</ele>
        <time>2009-12-06T12:06:11Z</time>
      </trkpt>
      <trkpt lat="48.39386" lon="2.52642">
        <ele>115</ele>
        <time>2009-12-06T12:06:23Z</time>
      </trkpt>
      <trkpt lat="48.39381" lon="2.52663">
        <ele>115</ele>
        <time>2009-12-06T12:06:34Z</time>
      </trkpt>
      <trkpt lat="48.3938" lon="2.52688">
        <ele>116</ele>
        <time>2009-12-06T12:06:51Z</time>
      </trkpt>
      <trkpt lat="48.39375" lon="2.52708">
        <ele>116</ele>
        <time>2009-12-06T12:07:04Z</time>
      </trkpt>
      <trkpt lat="48.39386" lon="2.52723">
        <ele>118</ele>
        <time>2009-12-06T12:07:22Z</time>
      </trkpt>
      <trkpt lat="48.39399" lon="2.5273">
        <ele>119</ele>
        <time>2009-12-06T12:07:31Z</time>
      </trkpt>
      <trkpt lat="48.3941" lon="2.52745">
        <ele>119</ele>
        <time>2009-12-06T12:07:44Z</time>
      </trkpt>
      <trkpt lat="48.39423" lon="2.52747">
        <ele>120</ele>
        <time>2009-12-06T12:08:14Z</time>
      </trkpt>
      <trkpt lat="48.39437" lon="2.52753">
        <ele>120</ele>
        <time>2009-12-06T12:08:24Z</time>
      </trkpt>
      <trkpt lat="48.3945" lon="2.52757">
        <ele>119</ele>
        <time>2009-12-06T12:08:29Z</time>
      </trkpt>
      <trkpt lat="48.39465" lon="2.52766">
        <ele>119</ele>
        <time>2009-12-06T12:08:46Z</time>
      </trkpt>
      <trkpt lat="48.39479" lon="2.52763">
        <ele>119</ele>
        <time>2009-12-06T12:08:58Z</time>
      </trkpt>
      <trkpt lat="48.39492" lon="2.52766">
        <ele>119</ele>
        <time>2009-12-06T12:09:11Z</time>
      </trkpt>
      <trkpt lat="48.39506" lon="2.52771">
        <ele>118</ele>
        <time>2009-12-06T12:09:22Z</time>
      </trkpt>
      <trkpt lat="48.39519" lon="2.52772">
        <ele>117</ele>
        <time>2009-12-06T12:09:39Z</time>
      </trkpt>
      <trkpt lat="48.39533" lon="2.52766">
        <ele>116</ele>
        <time>2009-12-06T12:09:49Z</time>
      </trkpt>
      <trkpt lat="48.39546" lon="2.52769">
        <ele>115</ele>
        <time>2009-12-06T12:10:01Z</time>
      </trkpt>
      <trkpt lat="48.39557" lon="2.52756">
        <ele>113</ele>
        <time>2009-12-06T12:10:11Z</time>
      </trkpt>
      <trkpt lat="48.39572" lon="2.52747">
        <ele>110</ele>
        <time>2009-12-06T12:10:21Z</time>
      </trkpt>
      <trkpt lat="48.39585" lon="2.52751">
        <ele>107</ele>
        <time>2009-12-06T12:10:33Z</time>
      </trkpt>
      <trkpt lat="48.396" lon="2.52759">
        <ele>104</ele>
        <time>2009-12-06T12:10:52Z</time>
      </trkpt>
      <trkpt lat="48.39614" lon="2.52765">
        <ele>107</ele>
        <time>2009-12-06T12:11:02Z</time>
      </trkpt>
      <trkpt lat="48.3963" lon="2.52765">
        <ele>111</ele>
        <time>2009-12-06T12:11:20Z</time>
      </trkpt>
      <trkpt lat="48.39638" lon="2.52783">
        <ele>114</ele>
        <time>2009-12-06T12:11:38Z</time>
      </trkpt>
      <trkpt lat="48.39636" lon="2.52811">
        <ele>115</ele>
        <time>2009-12-06T12:11:55Z</time>
      </trkpt>
      <trkpt lat="48.3963" lon="2.52837">
        <ele>114</ele>
        <time>2009-12-06T12:12:12Z</time>
      </trkpt>
      <trkpt lat="48.39629" lon="2.52859">
        <ele>115</ele>
        <time>2009-12-06T12:12:24Z</time>
      </trkpt>
      <trkpt lat="48.39624" lon="2.52879">
        <ele>114</ele>
        <time>2009-12-06T12:12:35Z</time>
      </trkpt>
      <trkpt lat="48.39617" lon="2.52897">
        <ele>113</ele>
        <time>2009-12-06T12:12:44Z</time>
      </trkpt>
      <trkpt lat="48.39612" lon="2.52918">
        <ele>112</ele>
        <time>2009-12-06T12:12:57Z</time>
      </trkpt>
      <trkpt lat="48.3962" lon="2.52936">
        <ele>115</ele>
        <time>2009-12-06T12:13:08Z</time>
      </trkpt>
      <trkpt lat="48.39614" lon="2.52955">
        <ele>115</ele>
        <time>2009-12-06T12:13:21Z</time>
      </trkpt>
      <trkpt lat="48.39623" lon="2.52973">
        <ele>118</ele>
        <time>2009-12-06T12:13:38Z</time>
      </trkpt>
      <trkpt lat="48.39636" lon="2.5297">
        <ele>120</ele>
        <time>2009-12-06T12:13:56Z</time>
      </trkpt>
      <trkpt lat="48.3965" lon="2.52979">
        <ele>122</ele>
        <time>2009-12-06T12:14:28Z</time>
      </trkpt>
      <trkpt lat="48.39662" lon="2.52991">
        <ele>122</ele>
        <time>2009-12-06T12:14:47Z</time>
      </trkpt>
      <trkpt lat="48.39663" lon="2.53012">
        <ele>122</ele>
        <time>2009-12-06T12:15:09Z</time>
      </trkpt>
      <trkpt lat="48.39654" lon="2.53033">
        <ele>122</ele>
        <time>2009-12-06T12:15:26Z</time>
      </trkpt>
      <trkpt lat="48.39653" lon="2.53054">
        <ele>122</ele>
        <time>2009-12-06T12:15:37Z</time>
      </trkpt>
      <trkpt lat="48.39662" lon="2.53072">
        <ele>122</ele>
        <time>2009-12-06T12:15:50Z</time>
      </trkpt>
      <trkpt lat="48.39675" lon="2.5309">
        <ele>122</ele>
        <time>2009-12-06T12:16:07Z</time>
      </trkpt>
      <trkpt lat="48.3968" lon="2.5311">
        <ele>122</ele>
        <time>2009-12-06T12:16:18Z</time>
      </trkpt>
      <trkpt lat="48.39687" lon="2.53128">
        <ele>122</ele>
        <time>2009-12-06T12:16:29Z</time>
      </trkpt>
      <trkpt lat="48.39689" lon="2.53149">
        <ele>122</ele>
        <time>2009-12-06T12:16:42Z</time>
      </trkpt>
      <trkpt lat="48.39701" lon="2.53159">
        <ele>122</ele>
        <time>2009-12-06T12:16:51Z</time>
      </trkpt>
      <trkpt lat="48.39716" lon="2.53162">
        <ele>121</ele>
        <time>2009-12-06T12:17:02Z</time>
      </trkpt>
      <trkpt lat="48.39722" lon="2.53182">
        <ele>121</ele>
        <time>2009-12-06T12:17:20Z</time>
      </trkpt>
      <trkpt lat="48.39738" lon="2.53188">
        <ele>120</ele>
        <time>2009-12-06T12:17:37Z</time>
      </trkpt>
      <trkpt lat="48.39746" lon="2.53206">
        <ele>119</ele>
        <time>2009-12-06T12:17:58Z</time>
      </trkpt>
      <trkpt lat="48.3974" lon="2.53233">
        <ele>121</ele>
        <time>2009-12-06T12:18:15Z</time>
      </trkpt>
      <trkpt lat="48.39741" lon="2.53254">
        <ele>121</ele>
        <time>2009-12-06T12:18:24Z</time>
      </trkpt>
      <trkpt lat="48.39747" lon="2.53275">
        <ele>119</ele>
        <time>2009-12-06T12:18:36Z</time>
      </trkpt>
      <trkpt lat="48.39747" lon="2.53296">
        <ele>118</ele>
        <time>2009-12-06T12:18:48Z</time>
      </trkpt>
      <trkpt lat="48.39741" lon="2.53317">
        <ele>117</ele>
        <time>2009-12-06T12:19:01Z</time>
      </trkpt>
      <trkpt lat="48.39737" lon="2.53341">
        <ele>115</ele>
        <time>2009-12-06T12:19:14Z</time>
      </trkpt>
      <trkpt lat="48.39729" lon="2.53359">
        <ele>115</ele>
        <time>2009-12-06T12:19:25Z</time>
      </trkpt>
      <trkpt lat="48.39723" lon="2.53378">
        <ele>114</ele>
        <time>2009-12-06T12:19:36Z</time>
      </trkpt>
      <trkpt lat="48.39716" lon="2.53396">
        <ele>114</ele>
        <time>2009-12-06T12:19:48Z</time>
      </trkpt>
      <trkpt lat="48.39708" lon="2.53414">
        <ele>117</ele>
        <time>2009-12-06T12:19:59Z</time>
      </trkpt>
      <trkpt lat="48.39699" lon="2.53435">
        <ele>120</ele>
        <time>2009-12-06T12:20:11Z</time>
      </trkpt>
      <trkpt lat="48.39692" lon="2.53453">
        <ele>122</ele>
        <time>2009-12-06T12:20:22Z</time>
      </trkpt>
      <trkpt lat="48.39687" lon="2.53473">
        <ele>122</ele>
        <time>2009-12-06T12:20:32Z</time>
      </trkpt>
      <trkpt lat="48.39686" lon="2.53497">
        <ele>121</ele>
        <time>2009-12-06T12:20:49Z</time>
      </trkpt>
      <trkpt lat="48.39683" lon="2.53518">
        <ele>121</ele>
        <time>2009-12-06T12:21:01Z</time>
      </trkpt>
      <trkpt lat="48.39678" lon="2.53537">
        <ele>120</ele>
        <time>2009-12-06T12:21:12Z</time>
      </trkpt>
      <trkpt lat="48.39677" lon="2.53558">
        <ele>118</ele>
        <time>2009-12-06T12:21:22Z</time>
      </trkpt>
      <trkpt lat="48.39681" lon="2.53587">
        <ele>114</ele>
        <time>2009-12-06T12:21:39Z</time>
      </trkpt>
      <trkpt lat="48.39684" lon="2.53608">
        <ele>112</ele>
        <time>2009-12-06T12:22:01Z</time>
      </trkpt>
      <trkpt lat="48.39677" lon="2.53626">
        <ele>113</ele>
        <time>2009-12-06T12:22:18Z</time>
      </trkpt>
      <trkpt lat="48.39663" lon="2.53633">
        <ele>116</ele>
        <time>2009-12-06T12:22:35Z</time>
      </trkpt>
      <trkpt lat="48.3965" lon="2.53642">
        <ele>120</ele>
        <time>2009-12-06T12:22:44Z</time>
      </trkpt>
      <trkpt lat="48.39636" lon="2.5365">
        <ele>121</ele>
        <time>2009-12-06T12:22:57Z</time>
      </trkpt>
      <trkpt lat="48.39636" lon="2.53671">
        <ele>121</ele>
        <time>2009-12-06T12:23:08Z</time>
      </trkpt>
      <trkpt lat="48.39633" lon="2.53695">
        <ele>120</ele>
        <time>2009-12-06T12:23:25Z</time>
      </trkpt>
      <trkpt lat="48.39636" lon="2.53716">
        <ele>119</ele>
        <time>2009-12-06T12:23:34Z</time>
      </trkpt>
      <trkpt lat="48.39638" lon="2.53738">
        <ele>118</ele>
        <time>2009-12-06T12:23:46Z</time>
      </trkpt>
      <trkpt lat="48.39638" lon="2.53761">
        <ele>114</ele>
        <time>2009-12-06T12:23:58Z</time>
      </trkpt>
      <trkpt lat="48.39647" lon="2.53779">
        <ele>109</ele>
        <time>2009-12-06T12:24:10Z</time>
      </trkpt>
      <trkpt lat="48.39656" lon="2.53795">
        <ele>103</ele>
        <time>2009-12-06T12:24:27Z</time>
      </trkpt>
      <trkpt lat="48.39642" lon="2.53795">
        <ele>108</ele>
        <time>2009-12-06T12:25:28Z</time>
      </trkpt>
      <trkpt lat="48.39629" lon="2.53795">
        <ele>111</ele>
        <time>2009-12-06T12:25:40Z</time>
      </trkpt>
      <trkpt lat="48.39615" lon="2.538">
        <ele>114</ele>
        <time>2009-12-06T12:25:49Z</time>
      </trkpt>
      <trkpt lat="48.396" lon="2.538">
        <ele>118</ele>
        <time>2009-12-06T12:26:06Z</time>
      </trkpt>
      <trkpt lat="48.39587" lon="2.538">
        <ele>119</ele>
        <time>2009-12-06T12:26:18Z</time>
      </trkpt>
      <trkpt lat="48.39569" lon="2.53797">
        <ele>120</ele>
        <time>2009-12-06T12:26:35Z</time>
      </trkpt>
      <trkpt lat="48.39549" lon="2.53804">
        <ele>120</ele>
        <time>2009-12-06T12:26:52Z</time>
      </trkpt>
      <trkpt lat="48.39536" lon="2.53806">
        <ele>120</ele>
        <time>2009-12-06T12:27:01Z</time>
      </trkpt>
      <trkpt lat="48.39522" lon="2.53803">
        <ele>120</ele>
        <time>2009-12-06T12:27:13Z</time>
      </trkpt>
      <trkpt lat="48.39509" lon="2.53798">
        <ele>120</ele>
        <time>2009-12-06T12:27:21Z</time>
      </trkpt>
      <trkpt lat="48.39494" lon="2.538">
        <ele>120</ele>
        <time>2009-12-06T12:27:38Z</time>
      </trkpt>
      <trkpt lat="48.3948" lon="2.53798">
        <ele>120</ele>
        <time>2009-12-06T12:27:48Z</time>
      </trkpt>
      <trkpt lat="48.39467" lon="2.53794">
        <ele>120</ele>
        <time>2009-12-06T12:27:57Z</time>
      </trkpt>
      <trkpt lat="48.39453" lon="2.5378">
        <ele>120</ele>
        <time>2009-12-06T12:28:08Z</time>
      </trkpt>
      <trkpt lat="48.39441" lon="2.53767">
        <ele>120</ele>
        <time>2009-12-06T12:28:27Z</time>
      </trkpt>
      <trkpt lat="48.39426" lon="2.53764">
        <ele>120</ele>
        <time>2009-12-06T12:28:34Z</time>
      </trkpt>
      <trkpt lat="48.39413" lon="2.53768">
        <ele>120</ele>
        <time>2009-12-06T12:28:46Z</time>
      </trkpt>
      <trkpt lat="48.39395" lon="2.53758">
        <ele>120</ele>
        <time>2009-12-06T12:29:03Z</time>
      </trkpt>
      <trkpt lat="48.39381" lon="2.53758">
        <ele>120</ele>
        <time>2009-12-06T12:29:13Z</time>
      </trkpt>
      <trkpt lat="48.39366" lon="2.53752">
        <ele>120</ele>
        <time>2009-12-06T12:29:32Z</time>
      </trkpt>
      <trkpt lat="48.39378" lon="2.53764">
        <ele>120</ele>
        <time>2009-12-06T12:29:53Z</time>
      </trkpt>
      <trkpt lat="48.39366" lon="2.53776">
        <ele>119</ele>
        <time>2009-12-06T12:30:12Z</time>
      </trkpt>
      <trkpt lat="48.39356" lon="2.53791">
        <ele>119</ele>
        <time>2009-12-06T12:30:25Z</time>
      </trkpt>
      <trkpt lat="48.39344" lon="2.53804">
        <ele>118</ele>
        <time>2009-12-06T12:30:33Z</time>
      </trkpt>
      <trkpt lat="48.39333" lon="2.53818">
        <ele>118</ele>
        <time>2009-12-06T12:30:45Z</time>
      </trkpt>
      <trkpt lat="48.39321" lon="2.5383">
        <ele>117</ele>
        <time>2009-12-06T12:30:58Z</time>
      </trkpt>
      <trkpt lat="48.39303" lon="2.53837">
        <ele>117</ele>
        <time>2009-12-06T12:31:15Z</time>
      </trkpt>
      <trkpt lat="48.3929" lon="2.53839">
        <ele>116</ele>
        <time>2009-12-06T12:31:25Z</time>
      </trkpt>
      <trkpt lat="48.39276" lon="2.53848">
        <ele>115</ele>
        <time>2009-12-06T12:31:37Z</time>
      </trkpt>
      <trkpt lat="48.39272" lon="2.53867">
        <ele>115</ele>
        <time>2009-12-06T12:31:50Z</time>
      </trkpt>
      <trkpt lat="48.39261" lon="2.53882">
        <ele>115</ele>
        <time>2009-12-06T12:32:02Z</time>
      </trkpt>
      <trkpt lat="48.39257" lon="2.53902">
        <ele>115</ele>
        <time>2009-12-06T12:32:13Z</time>
      </trkpt>
      <trkpt lat="48.39246" lon="2.53915">
        <ele>115</ele>
        <time>2009-12-06T12:32:25Z</time>
      </trkpt>
      <trkpt lat="48.39234" lon="2.53926">
        <ele>114</ele>
        <time>2009-12-06T12:32:38Z</time>
      </trkpt>
      <trkpt lat="48.39227" lon="2.53945">
        <ele>113</ele>
        <time>2009-12-06T12:32:49Z</time>
      </trkpt>
      <trkpt lat="48.39225" lon="2.53966">
        <ele>112</ele>
        <time>2009-12-06T12:32:57Z</time>
      </trkpt>
      <trkpt lat="48.39227" lon="2.53987">
        <ele>112</ele>
        <time>2009-12-06T12:33:09Z</time>
      </trkpt>
      <trkpt lat="48.39233" lon="2.54007">
        <ele>112</ele>
        <time>2009-12-06T12:33:18Z</time>
      </trkpt>
      <trkpt lat="48.39239" lon="2.54028">
        <ele>113</ele>
        <time>2009-12-06T12:33:28Z</time>
      </trkpt>
      <trkpt lat="48.39242" lon="2.54056">
        <ele>112</ele>
        <time>2009-12-06T12:33:46Z</time>
      </trkpt>
      <trkpt lat="48.39242" lon="2.54077">
        <ele>112</ele>
        <time>2009-12-06T12:34:03Z</time>
      </trkpt>
      <trkpt lat="48.3924" lon="2.54101">
        <ele>113</ele>
        <time>2009-12-06T12:34:16Z</time>
      </trkpt>
      <trkpt lat="48.39251" lon="2.54115">
        <ele>114</ele>
        <time>2009-12-06T12:34:25Z</time>
      </trkpt>
      <trkpt lat="48.39251" lon="2.54136">
        <ele>114</ele>
        <time>2009-12-06T12:34:44Z</time>
      </trkpt>
      <trkpt lat="48.39237" lon="2.54145">
        <ele>114</ele>
        <time>2009-12-06T12:34:55Z</time>
      </trkpt>
      <trkpt lat="48.39222" lon="2.5416">
        <ele>113</ele>
        <time>2009-12-06T12:35:12Z</time>
      </trkpt>
      <trkpt lat="48.39215" lon="2.54178">
        <ele>113</ele>
        <time>2009-12-06T12:35:22Z</time>
      </trkpt>
      <trkpt lat="48.39207" lon="2.54196">
        <ele>113</ele>
        <time>2009-12-06T12:35:33Z</time>
      </trkpt>
      <trkpt lat="48.39203" lon="2.54215">
        <ele>112</ele>
        <time>2009-12-06T12:35:42Z</time>
      </trkpt>
      <trkpt lat="48.39201" lon="2.54238">
        <ele>111</ele>
        <time>2009-12-06T12:35:54Z</time>
      </trkpt>
      <trkpt lat="48.39207" lon="2.5426">
        <ele>111</ele>
        <time>2009-12-06T12:36:07Z</time>
      </trkpt>
      <trkpt lat="48.39203" lon="2.5428">
        <ele>110</ele>
        <time>2009-12-06T12:36:18Z</time>
      </trkpt>
      <trkpt lat="48.39204" lon="2.54301">
        <ele>109</ele>
        <time>2009-12-06T12:36:28Z</time>
      </trkpt>
      <trkpt lat="48.39203" lon="2.54322">
        <ele>108</ele>
        <time>2009-12-06T12:36:40Z</time>
      </trkpt>
      <trkpt lat="48.39203" lon="2.54343">
        <ele>107</ele>
        <time>2009-12-06T12:36:53Z</time>
      </trkpt>
      <trkpt lat="48.39207" lon="2.54362">
        <ele>107</ele>
        <time>2009-12-06T12:37:10Z</time>
      </trkpt>
      <trkpt lat="48.39195" lon="2.54382">
        <ele>105</ele>
        <time>2009-12-06T12:37:27Z</time>
      </trkpt>
      <trkpt lat="48.3918" lon="2.54395">
        <ele>102</ele>
        <time>2009-12-06T12:37:45Z</time>
      </trkpt>
      <trkpt lat="48.39171" lon="2.54413">
        <ele>99</ele>
        <time>2009-12-06T12:37:57Z</time>
      </trkpt>
      <trkpt lat="48.39168" lon="2.54434">
        <ele>97</ele>
        <time>2009-12-06T12:38:07Z</time>
      </trkpt>
      <trkpt lat="48.39167" lon="2.54455">
        <ele>95</ele>
        <time>2009-12-06T12:38:18Z</time>
      </trkpt>
      <trkpt lat="48.39164" lon="2.54476">
        <ele>93</ele>
        <time>2009-12-06T12:38:29Z</time>
      </trkpt>
      <trkpt lat="48.39158" lon="2.54496">
        <ele>91</ele>
        <time>2009-12-06T12:38:40Z</time>
      </trkpt>
      <trkpt lat="48.3915" lon="2.54514">
        <ele>88</ele>
        <time>2009-12-06T12:38:52Z</time>
      </trkpt>
      <trkpt lat="48.39149" lon="2.54535">
        <ele>87</ele>
        <time>2009-12-06T12:39:03Z</time>
      </trkpt>
      <trkpt lat="48.39156" lon="2.54553">
        <ele>86</ele>
        <time>2009-12-06T12:39:13Z</time>
      </trkpt>
      <trkpt lat="48.39152" lon="2.54574">
        <ele>84</ele>
        <time>2009-12-06T12:39:26Z</time>
      </trkpt>
      <trkpt lat="48.39164" lon="2.54586">
        <ele>84</ele>
        <time>2009-12-06T12:39:39Z</time>
      </trkpt>
      <trkpt lat="48.39171" lon="2.54604">
        <ele>82</ele>
        <time>2009-12-06T12:39:52Z</time>
      </trkpt>
      <trkpt lat="48.39167" lon="2.54625">
        <ele>81</ele>
        <time>2009-12-06T12:40:04Z</time>
      </trkpt>
      <trkpt lat="48.39164" lon="2.54646">
        <ele>80</ele>
        <time>2009-12-06T12:40:17Z</time>
      </trkpt>
      <trkpt lat="48.39165" lon="2.54668">
        <ele>79</ele>
        <time>2009-12-06T12:40:28Z</time>
      </trkpt>
      <trkpt lat="48.39161" lon="2.54689">
        <ele>78</ele>
        <time>2009-12-06T12:40:38Z</time>
      </trkpt>
      <trkpt lat="48.39155" lon="2.5471">
        <ele>78</ele>
        <time>2009-12-06T12:40:50Z</time>
      </trkpt>
      <trkpt lat="48.39147" lon="2.5473">
        <ele>78</ele>
        <time>2009-12-06T12:41:03Z</time>
      </trkpt>
      <trkpt lat="48.39146" lon="2.54752">
        <ele>78</ele>
        <time>2009-12-06T12:41:13Z</time>
      </trkpt>
      <trkpt lat="48.39156" lon="2.54766">
        <ele>78</ele>
        <time>2009-12-06T12:41:23Z</time>
      </trkpt>
      <trkpt lat="48.39153" lon="2.54787">
        <ele>77</ele>
        <time>2009-12-06T12:41:36Z</time>
      </trkpt>
      <trkpt lat="48.39158" lon="2.54809">
        <ele>77</ele>
        <time>2009-12-06T12:41:47Z</time>
      </trkpt>
      <trkpt lat="48.39158" lon="2.5483">
        <ele>77</ele>
        <time>2009-12-06T12:41:59Z</time>
      </trkpt>
      <trkpt lat="48.39155" lon="2.54851">
        <ele>77</ele>
        <time>2009-12-06T12:42:06Z</time>
      </trkpt>
      <trkpt lat="48.39155" lon="2.54874">
        <ele>76</ele>
        <time>2009-12-06T12:42:17Z</time>
      </trkpt>
      <trkpt lat="48.39158" lon="2.54895">
        <ele>76</ele>
        <time>2009-12-06T12:42:29Z</time>
      </trkpt>
      <trkpt lat="48.39156" lon="2.54917">
        <ele>76</ele>
        <time>2009-12-06T12:43:11Z</time>
      </trkpt>
      <trkpt lat="48.39153" lon="2.5494">
        <ele>76</ele>
        <time>2009-12-06T12:43:23Z</time>
      </trkpt>
      <trkpt lat="48.39156" lon="2.54961">
        <ele>77</ele>
        <time>2009-12-06T12:43:33Z</time>
      </trkpt>
      <trkpt lat="48.39155" lon="2.54982">
        <ele>77</ele>
        <time>2009-12-06T12:43:45Z</time>
      </trkpt>
      <trkpt lat="48.39159" lon="2.55003">
        <ele>78</ele>
        <time>2009-12-06T12:43:54Z</time>
      </trkpt>
      <trkpt lat="48.39164" lon="2.55022">
        <ele>78</ele>
        <time>2009-12-06T12:44:04Z</time>
      </trkpt>
      <trkpt lat="48.39168" lon="2.55042">
        <ele>79</ele>
        <time>2009-12-06T12:44:16Z</time>
      </trkpt>
      <trkpt lat="48.39164" lon="2.5507">
        <ele>81</ele>
        <time>2009-12-06T12:44:33Z</time>
      </trkpt>
      <trkpt lat="48.3917" lon="2.5509">
        <ele>81</ele>
        <time>2009-12-06T12:44:44Z</time>
      </trkpt>
      <trkpt lat="48.39179" lon="2.55106">
        <ele>81</ele>
        <time>2009-12-06T12:44:54Z</time>
      </trkpt>
      <trkpt lat="48.39164" lon="2.55121">
        <ele>81</ele>
        <time>2009-12-06T12:45:11Z</time>
      </trkpt>
      <trkpt lat="48.39153" lon="2.55135">
        <ele>81</ele>
        <time>2009-12-06T12:45:21Z</time>
      </trkpt>
      <trkpt lat="48.39138" lon="2.55142">
        <ele>80</ele>
        <time>2009-12-06T12:45:38Z</time>
      </trkpt>
      <trkpt lat="48.39126" lon="2.55153">
        <ele>79</ele>
        <time>2009-12-06T12:45:46Z</time>
      </trkpt>
      <trkpt lat="48.39117" lon="2.55175">
        <ele>77</ele>
        <time>2009-12-06T12:46:03Z</time>
      </trkpt>
      <trkpt lat="48.39105" lon="2.55186">
        <ele>76</ele>
        <time>2009-12-06T12:46:15Z</time>
      </trkpt>
      <trkpt lat="48.39098" lon="2.55204">
        <ele>76</ele>
        <time>2009-12-06T12:46:24Z</time>
      </trkpt>
      <trkpt lat="48.3909" lon="2.55222">
        <ele>76</ele>
        <time>2009-12-06T12:46:45Z</time>
      </trkpt>
      <trkpt lat="48.39078" lon="2.55237">
        <ele>76</ele>
        <time>2009-12-06T12:47:02Z</time>
      </trkpt>
      <trkpt lat="48.39068" lon="2.5525">
        <ele>75</ele>
        <time>2009-12-06T12:47:15Z</time>
      </trkpt>
      <trkpt lat="48.39054" lon="2.55259">
        <ele>75</ele>
        <time>2009-12-06T12:47:27Z</time>
      </trkpt>
      <trkpt lat="48.39042" lon="2.5527">
        <ele>75</ele>
        <time>2009-12-06T12:47:37Z</time>
      </trkpt>
    </trkseg>
  </trk>
</gpx>